PHMTP EHAM-EDNY
Flight info
| Callsign | PHMTP |
|---|---|
| Flight time | N/A |
| Altitude | 19000 |
| Route | RENDI2G/22 EDUPO Z739 MISGO DCT ASBON DCT TUSUK DCT LAMGO T721 SUL DCT ZUE ZUE1F |
| Aircraft | B58T/L-SDFGRY/C |
Departure
| Time | 2026-05-04 11:16 |
|---|---|
| Airport | Amsterdam Airport Schiphol (EHAM) |
Arrival
| Time | N/A |
|---|---|
| Airport | Bodensee Airport Friedrichshafen (EDNY) |
| Time | Latitude | Longitude | Altitude | Speed | Heading |
|---|---|---|---|---|---|
| 2026-05-04 11:05 | 52.31134 | 4.80501 | -10 ft | 0 kts | 136° |
| 2026-05-04 11:12 | 52.31332 | 4.80404 | -13 ft | 0 kts | 310° |
| 2026-05-04 11:13 | 52.31346 | 4.80378 | -13 ft | 11 kts | 310° |
| 2026-05-04 11:14 | 52.31386 | 4.80283 | -10 ft | 6 kts | 257° |
| 2026-05-04 11:14 | 52.31372 | 4.80257 | -9 ft | 0 kts | 221° |
| 2026-05-04 11:14 | 52.31371 | 4.80256 | -9 ft | 4 kts | 221° |
| 2026-05-04 11:16 | 52.27172 | 4.81238 | 2322 ft | 144 kts | 127° |
| 2026-05-04 11:16 | 52.26583 | 4.82573 | 2732 ft | 145 kts | 127° |
| 2026-05-04 11:16 | 52.26000 | 4.83886 | 3135 ft | 141 kts | 127° |
| 2026-05-04 11:17 | 52.25588 | 4.85297 | 3526 ft | 138 kts | 98° |
| 2026-05-04 11:17 | 52.25550 | 4.86844 | 3921 ft | 135 kts | 92° |
| 2026-05-04 11:19 | 52.25423 | 4.97516 | 6428 ft | 147 kts | 90° |
| 2026-05-04 11:19 | 52.25417 | 4.99212 | 6686 ft | 152 kts | 91° |
| 2026-05-04 11:19 | 52.25380 | 5.00972 | 6942 ft | 156 kts | 103° |
| 2026-05-04 11:19 | 52.25131 | 5.02705 | 7203 ft | 159 kts | 98° |
| 2026-05-04 11:20 | 52.25043 | 5.04518 | 7462 ft | 161 kts | 94° |
| 2026-05-04 11:20 | 52.24987 | 5.06337 | 7716 ft | 164 kts | 93° |
| 2026-05-04 11:20 | 52.24933 | 5.08213 | 7988 ft | 165 kts | 93° |
| 2026-05-04 11:20 | 52.24879 | 5.10080 | 8294 ft | 164 kts | 93° |
| 2026-05-04 11:22 | 52.24491 | 5.23199 | 10433 ft | 167 kts | 94° |
| 2026-05-04 11:22 | 52.24415 | 5.25073 | 10718 ft | 167 kts | 102° |
| 2026-05-04 11:23 | 52.23952 | 5.26772 | 11012 ft | 164 kts | 128° |
| 2026-05-04 11:23 | 52.23284 | 5.28289 | 11307 ft | 164 kts | 128° |
| 2026-05-04 11:24 | 52.19288 | 5.37509 | 13165 ft | 173 kts | 129° |
| 2026-05-04 11:25 | 52.18596 | 5.39099 | 13487 ft | 175 kts | 129° |
| 2026-05-04 11:25 | 52.17890 | 5.40725 | 13804 ft | 176 kts | 129° |
| 2026-05-04 11:25 | 52.17188 | 5.42353 | 14083 ft | 174 kts | 129° |
| 2026-05-04 11:26 | 52.15800 | 5.45547 | 14633 ft | 170 kts | 129° |
| 2026-05-04 11:27 | 52.11460 | 5.55464 | 15941 ft | 145 kts | 130° |
| 2026-05-04 11:28 | 52.10878 | 5.56794 | 16008 ft | 147 kts | 130° |
| 2026-05-04 11:28 | 52.10284 | 5.58147 | 16082 ft | 147 kts | 130° |
| 2026-05-04 11:28 | 52.09685 | 5.59512 | 16151 ft | 149 kts | 130° |
| 2026-05-04 11:28 | 52.09081 | 5.60889 | 16206 ft | 151 kts | 130° |
| 2026-05-04 11:29 | 52.08465 | 5.62291 | 16271 ft | 154 kts | 130° |
| 2026-05-04 11:29 | 52.07840 | 5.63715 | 16343 ft | 155 kts | 130° |
| 2026-05-04 11:29 | 52.07209 | 5.65152 | 16402 ft | 157 kts | 130° |
| 2026-05-04 11:29 | 52.06575 | 5.66593 | 16460 ft | 158 kts | 130° |
| 2026-05-04 11:31 | 52.01809 | 5.75674 | 16843 ft | 158 kts | 136° |
| 2026-05-04 11:33 | 51.96797 | 5.85019 | 17396 ft | 159 kts | 136° |
| 2026-05-04 11:33 | 51.96068 | 5.86382 | 17485 ft | 160 kts | 136° |
| 2026-05-04 11:33 | 51.95335 | 5.87751 | 17561 ft | 161 kts | 136° |
| 2026-05-04 11:34 | 51.94599 | 5.89126 | 17649 ft | 162 kts | 136° |
| 2026-05-04 11:34 | 51.93857 | 5.90511 | 17733 ft | 163 kts | 137° |
| 2026-05-04 11:34 | 51.93110 | 5.91905 | 17818 ft | 164 kts | 137° |
| 2026-05-04 11:34 | 51.92368 | 5.93287 | 17901 ft | 165 kts | 137° |
| 2026-05-04 11:35 | 51.91616 | 5.94689 | 17981 ft | 165 kts | 136° |
| 2026-05-04 11:35 | 51.90860 | 5.96098 | 18064 ft | 165 kts | 136° |
| 2026-05-04 11:35 | 51.90103 | 5.97507 | 18147 ft | 166 kts | 136° |
| 2026-05-04 11:35 | 51.89347 | 5.98912 | 18225 ft | 166 kts | 136° |
| 2026-05-04 11:36 | 51.88588 | 6.00325 | 18301 ft | 166 kts | 136° |
| 2026-05-04 11:36 | 51.87829 | 6.01735 | 18373 ft | 166 kts | 136° |
| 2026-05-04 11:36 | 51.87068 | 6.03148 | 18445 ft | 167 kts | 136° |
| 2026-05-04 11:36 | 51.86305 | 6.04563 | 18517 ft | 167 kts | 136° |
| 2026-05-04 11:37 | 51.85543 | 6.05977 | 18589 ft | 166 kts | 136° |
| 2026-05-04 11:37 | 51.84782 | 6.07384 | 18660 ft | 166 kts | 136° |
| 2026-05-04 11:37 | 51.84024 | 6.08782 | 18729 ft | 165 kts | 137° |
| 2026-05-04 11:37 | 51.83266 | 6.10169 | 18799 ft | 165 kts | 137° |
| 2026-05-04 11:38 | 51.82506 | 6.11563 | 18873 ft | 165 kts | 137° |
| 2026-05-04 11:38 | 51.81741 | 6.12962 | 18948 ft | 167 kts | 137° |
| 2026-05-04 11:38 | 51.80959 | 6.14378 | 18991 ft | 172 kts | 137° |
| 2026-05-04 11:38 | 51.80163 | 6.15840 | 18997 ft | 179 kts | 137° |
| 2026-05-04 11:39 | 51.79322 | 6.17386 | 19002 ft | 188 kts | 136° |
| 2026-05-04 11:39 | 51.78427 | 6.19024 | 19000 ft | 199 kts | 136° |
| 2026-05-04 11:40 | 51.72665 | 6.29560 | 18998 ft | 209 kts | 136° |
| 2026-05-04 11:41 | 51.71701 | 6.31318 | 18992 ft | 209 kts | 136° |
| 2026-05-04 11:41 | 51.70752 | 6.33044 | 18994 ft | 208 kts | 136° |
| 2026-05-04 11:41 | 51.69791 | 6.34792 | 18993 ft | 208 kts | 136° |
| 2026-05-04 11:41 | 51.68828 | 6.36543 | 18993 ft | 208 kts | 136° |
| 2026-05-04 11:42 | 51.67868 | 6.38287 | 18992 ft | 208 kts | 136° |
| 2026-05-04 11:42 | 51.66911 | 6.40026 | 18992 ft | 208 kts | 136° |
| 2026-05-04 11:42 | 51.65950 | 6.41768 | 18990 ft | 208 kts | 136° |
| 2026-05-04 11:42 | 51.64990 | 6.43509 | 18991 ft | 208 kts | 136° |
| 2026-05-04 11:43 | 51.64030 | 6.45248 | 18986 ft | 208 kts | 136° |
| 2026-05-04 11:43 | 51.63070 | 6.46987 | 18979 ft | 208 kts | 136° |
| 2026-05-04 11:43 | 51.62112 | 6.48723 | 18986 ft | 206 kts | 136° |
| 2026-05-04 11:43 | 51.61156 | 6.50451 | 18987 ft | 205 kts | 136° |
| 2026-05-04 11:44 | 51.60208 | 6.52165 | 18989 ft | 205 kts | 136° |
| 2026-05-04 11:44 | 51.59262 | 6.53874 | 18988 ft | 204 kts | 136° |
| 2026-05-04 11:44 | 51.58318 | 6.55579 | 18983 ft | 204 kts | 136° |
| 2026-05-04 11:44 | 51.57376 | 6.57279 | 18976 ft | 204 kts | 136° |
| 2026-05-04 11:45 | 51.56434 | 6.58978 | 18975 ft | 203 kts | 136° |
| 2026-05-04 11:45 | 51.55493 | 6.60673 | 18974 ft | 203 kts | 136° |
| 2026-05-04 11:45 | 51.54552 | 6.62368 | 18974 ft | 203 kts | 136° |
| 2026-05-04 11:45 | 51.53611 | 6.64060 | 18972 ft | 203 kts | 136° |
| 2026-05-04 11:46 | 51.52681 | 6.65733 | 18973 ft | 203 kts | 136° |
| 2026-05-04 11:46 | 51.51741 | 6.67423 | 18973 ft | 203 kts | 136° |
| 2026-05-04 11:46 | 51.50798 | 6.69116 | 18973 ft | 203 kts | 136° |
| 2026-05-04 11:46 | 51.49858 | 6.70804 | 18973 ft | 203 kts | 136° |
| 2026-05-04 11:47 | 51.48917 | 6.72491 | 18974 ft | 203 kts | 137° |
| 2026-05-04 11:47 | 51.47977 | 6.74177 | 18973 ft | 202 kts | 137° |
| 2026-05-04 11:47 | 51.47036 | 6.75861 | 18972 ft | 202 kts | 137° |
| 2026-05-04 11:47 | 51.46099 | 6.77537 | 18972 ft | 202 kts | 137° |
| 2026-05-04 11:48 | 51.45162 | 6.79214 | 18977 ft | 202 kts | 137° |
| 2026-05-04 11:48 | 51.44224 | 6.80891 | 18969 ft | 202 kts | 137° |
| 2026-05-04 11:48 | 51.43284 | 6.82570 | 18973 ft | 202 kts | 137° |
| 2026-05-04 11:48 | 51.42346 | 6.84246 | 18968 ft | 202 kts | 137° |
| 2026-05-04 11:49 | 51.41408 | 6.85918 | 18968 ft | 202 kts | 137° |
| 2026-05-04 11:49 | 51.40451 | 6.87555 | 18971 ft | 199 kts | 145° |
| 2026-05-04 11:49 | 51.39312 | 6.88751 | 18971 ft | 195 kts | 154° |
| 2026-05-04 11:49 | 51.38159 | 6.89912 | 18972 ft | 196 kts | 153° |
| 2026-05-04 11:50 | 51.37011 | 6.91081 | 18972 ft | 196 kts | 153° |
| 2026-05-04 11:50 | 51.35860 | 6.92243 | 18976 ft | 195 kts | 154° |
| 2026-05-04 11:50 | 51.34711 | 6.93402 | 18978 ft | 194 kts | 154° |
| 2026-05-04 11:50 | 51.33564 | 6.94555 | 18980 ft | 194 kts | 154° |
| 2026-05-04 11:51 | 51.32421 | 6.95706 | 18996 ft | 194 kts | 154° |
| 2026-05-04 11:51 | 51.31292 | 6.96843 | 18988 ft | 194 kts | 154° |
| 2026-05-04 11:51 | 51.30150 | 6.97991 | 18988 ft | 194 kts | 154° |
| 2026-05-04 11:51 | 51.29008 | 6.99138 | 18987 ft | 194 kts | 154° |
| 2026-05-04 11:52 | 51.27867 | 7.00284 | 18992 ft | 194 kts | 154° |
| 2026-05-04 11:52 | 51.26727 | 7.01429 | 18986 ft | 193 kts | 154° |
| 2026-05-04 11:52 | 51.25586 | 7.02573 | 18985 ft | 193 kts | 154° |
| 2026-05-04 11:52 | 51.24446 | 7.03716 | 18984 ft | 194 kts | 154° |
| 2026-05-04 11:53 | 51.23306 | 7.04858 | 18984 ft | 193 kts | 154° |
| 2026-05-04 11:53 | 51.22166 | 7.06000 | 18987 ft | 193 kts | 154° |
| 2026-05-04 11:53 | 51.21027 | 7.07141 | 18991 ft | 193 kts | 154° |
| 2026-05-04 11:53 | 51.19885 | 7.08282 | 18985 ft | 193 kts | 154° |
| 2026-05-04 11:55 | 51.11933 | 7.16214 | 18984 ft | 193 kts | 155° |
| 2026-05-04 11:55 | 51.10795 | 7.17352 | 18981 ft | 193 kts | 155° |
| 2026-05-04 11:56 | 51.09657 | 7.18484 | 18981 ft | 193 kts | 155° |
| 2026-05-04 11:56 | 51.08512 | 7.19621 | 18983 ft | 194 kts | 155° |
| 2026-05-04 11:56 | 51.07365 | 7.20761 | 18985 ft | 194 kts | 155° |
| 2026-05-04 11:56 | 51.06218 | 7.21899 | 18986 ft | 194 kts | 155° |
| 2026-05-04 11:57 | 51.05070 | 7.23039 | 18988 ft | 194 kts | 155° |
| 2026-05-04 11:57 | 51.03925 | 7.24174 | 18988 ft | 194 kts | 155° |
| 2026-05-04 11:57 | 51.02780 | 7.25311 | 18988 ft | 194 kts | 155° |
| 2026-05-04 11:57 | 51.01635 | 7.26444 | 18988 ft | 194 kts | 155° |
| 2026-05-04 11:58 | 51.00505 | 7.27565 | 18988 ft | 194 kts | 155° |
| 2026-05-04 11:58 | 50.99362 | 7.28694 | 18988 ft | 194 kts | 155° |
| 2026-05-04 11:58 | 50.98214 | 7.29830 | 18990 ft | 194 kts | 155° |
| 2026-05-04 11:58 | 50.97068 | 7.30963 | 18990 ft | 194 kts | 155° |
| 2026-05-04 11:59 | 50.95924 | 7.32093 | 18990 ft | 194 kts | 155° |
| 2026-05-04 11:59 | 50.94781 | 7.33222 | 18988 ft | 193 kts | 155° |
| 2026-05-04 11:59 | 50.93638 | 7.34350 | 18988 ft | 193 kts | 155° |
| 2026-05-04 11:59 | 50.92494 | 7.35478 | 18988 ft | 193 kts | 155° |
| 2026-05-04 12:00 | 50.91350 | 7.36604 | 18987 ft | 194 kts | 155° |
| 2026-05-04 12:00 | 50.90206 | 7.37732 | 18987 ft | 194 kts | 155° |
| 2026-05-04 12:00 | 50.89062 | 7.38858 | 18987 ft | 194 kts | 155° |
| 2026-05-04 12:00 | 50.87915 | 7.39987 | 18988 ft | 194 kts | 155° |
| 2026-05-04 12:01 | 50.86780 | 7.41104 | 18990 ft | 194 kts | 155° |
| 2026-05-04 12:01 | 50.85632 | 7.42231 | 18990 ft | 194 kts | 155° |
| 2026-05-04 12:02 | 50.78741 | 7.48989 | 18990 ft | 195 kts | 155° |
| 2026-05-04 12:03 | 50.77589 | 7.50117 | 18985 ft | 195 kts | 155° |
| 2026-05-04 12:03 | 50.76437 | 7.51245 | 18981 ft | 195 kts | 155° |
| 2026-05-04 12:03 | 50.75281 | 7.52372 | 18978 ft | 196 kts | 155° |
| 2026-05-04 12:03 | 50.74121 | 7.53506 | 18980 ft | 196 kts | 154° |
| 2026-05-04 12:04 | 50.72963 | 7.54637 | 18983 ft | 196 kts | 155° |
| 2026-05-04 12:04 | 50.71818 | 7.55813 | 18986 ft | 197 kts | 152° |
| 2026-05-04 12:04 | 50.70675 | 7.57003 | 18987 ft | 196 kts | 154° |
| 2026-05-04 12:04 | 50.69523 | 7.58175 | 18989 ft | 197 kts | 153° |
| 2026-05-04 12:05 | 50.68372 | 7.59363 | 18989 ft | 198 kts | 153° |
| 2026-05-04 12:05 | 50.67220 | 7.60559 | 18991 ft | 199 kts | 153° |
| 2026-05-04 12:05 | 50.66065 | 7.61758 | 18990 ft | 198 kts | 153° |
| 2026-05-04 12:05 | 50.64910 | 7.62954 | 18991 ft | 198 kts | 153° |
| 2026-05-04 12:06 | 50.63755 | 7.64148 | 18993 ft | 198 kts | 153° |
| 2026-05-04 12:06 | 50.62617 | 7.65325 | 18991 ft | 198 kts | 153° |
| 2026-05-04 12:06 | 50.61454 | 7.66528 | 18990 ft | 198 kts | 152° |
| 2026-05-04 12:06 | 50.60318 | 7.67701 | 18989 ft | 197 kts | 152° |
| 2026-05-04 12:07 | 50.59170 | 7.68886 | 18990 ft | 197 kts | 152° |
| 2026-05-04 12:07 | 50.58023 | 7.70071 | 18989 ft | 197 kts | 152° |
| 2026-05-04 12:07 | 50.56877 | 7.71251 | 18989 ft | 197 kts | 152° |
| 2026-05-04 12:07 | 50.55733 | 7.72429 | 18988 ft | 197 kts | 152° |
| 2026-05-04 12:08 | 50.54585 | 7.73612 | 18987 ft | 197 kts | 152° |
| 2026-05-04 12:08 | 50.53444 | 7.74787 | 18987 ft | 196 kts | 152° |
| 2026-05-04 12:08 | 50.52300 | 7.75964 | 18986 ft | 196 kts | 152° |
| 2026-05-04 12:08 | 50.51156 | 7.77141 | 18987 ft | 196 kts | 152° |
| 2026-05-04 12:09 | 50.50014 | 7.78313 | 18986 ft | 196 kts | 152° |
| 2026-05-04 12:09 | 50.48873 | 7.79486 | 18986 ft | 196 kts | 152° |
| 2026-05-04 12:09 | 50.47732 | 7.80657 | 18987 ft | 196 kts | 152° |
| 2026-05-04 12:09 | 50.46605 | 7.81813 | 18987 ft | 196 kts | 152° |
| 2026-05-04 12:10 | 50.45461 | 7.82986 | 18986 ft | 196 kts | 152° |
| 2026-05-04 12:10 | 50.44317 | 7.84157 | 18986 ft | 196 kts | 152° |
| 2026-05-04 12:10 | 50.43176 | 7.85326 | 18987 ft | 196 kts | 152° |
| 2026-05-04 12:10 | 50.42031 | 7.86498 | 18989 ft | 196 kts | 152° |
| 2026-05-04 12:11 | 50.40887 | 7.87668 | 18978 ft | 196 kts | 152° |
| 2026-05-04 12:11 | 50.39745 | 7.88836 | 18985 ft | 196 kts | 152° |
| 2026-05-04 12:11 | 50.38594 | 7.90010 | 18984 ft | 197 kts | 152° |
| 2026-05-04 12:11 | 50.37442 | 7.91186 | 18984 ft | 197 kts | 152° |
| 2026-05-04 12:12 | 50.36293 | 7.92360 | 18985 ft | 197 kts | 152° |
| 2026-05-04 12:12 | 50.35162 | 7.93513 | 18986 ft | 196 kts | 152° |
| 2026-05-04 12:12 | 50.34017 | 7.94681 | 18987 ft | 197 kts | 152° |
| 2026-05-04 12:12 | 50.32866 | 7.95851 | 18990 ft | 197 kts | 152° |
| 2026-05-04 12:13 | 50.31718 | 7.97020 | 18990 ft | 197 kts | 152° |
| 2026-05-04 12:14 | 50.23691 | 8.05173 | 18985 ft | 195 kts | 152° |
| 2026-05-04 12:15 | 50.22563 | 8.06316 | 18984 ft | 195 kts | 152° |
| 2026-05-04 12:15 | 50.21418 | 8.07476 | 18984 ft | 195 kts | 152° |
| 2026-05-04 12:15 | 50.20278 | 8.08630 | 18983 ft | 195 kts | 152° |
| 2026-05-04 12:15 | 50.19140 | 8.09780 | 18983 ft | 195 kts | 152° |
| 2026-05-04 12:16 | 50.17996 | 8.10937 | 18983 ft | 195 kts | 152° |
| 2026-05-04 12:16 | 50.17240 | 8.11700 | 18982 ft | 195 kts | 152° |
| 2026-05-04 12:16 | 50.16102 | 8.12850 | 18983 ft | 196 kts | 152° |
| 2026-05-04 12:16 | 50.14956 | 8.14006 | 18982 ft | 196 kts | 152° |
| 2026-05-04 12:17 | 50.13811 | 8.15155 | 18982 ft | 195 kts | 154° |
| 2026-05-04 12:17 | 50.12572 | 8.15927 | 18989 ft | 190 kts | 167° |
| 2026-05-04 12:17 | 50.11314 | 8.16558 | 18992 ft | 190 kts | 165° |
| 2026-05-04 12:17 | 50.10062 | 8.17215 | 18994 ft | 190 kts | 165° |
| 2026-05-04 12:18 | 50.08808 | 8.17860 | 18994 ft | 190 kts | 166° |
| 2026-05-04 12:18 | 50.07548 | 8.18502 | 18993 ft | 190 kts | 166° |
| 2026-05-04 12:18 | 50.06290 | 8.19147 | 18993 ft | 190 kts | 166° |
| 2026-05-04 12:18 | 50.05036 | 8.19789 | 18993 ft | 190 kts | 166° |
| 2026-05-04 12:19 | 50.03798 | 8.20423 | 18993 ft | 190 kts | 166° |
| 2026-05-04 12:19 | 50.02541 | 8.21065 | 18993 ft | 189 kts | 166° |
| 2026-05-04 12:19 | 50.01289 | 8.21705 | 18992 ft | 189 kts | 166° |
| 2026-05-04 12:19 | 50.00036 | 8.22345 | 18976 ft | 189 kts | 166° |
| 2026-05-04 12:20 | 49.98785 | 8.22984 | 18984 ft | 189 kts | 166° |
| 2026-05-04 12:20 | 49.97531 | 8.23622 | 18983 ft | 190 kts | 166° |
| 2026-05-04 12:20 | 49.96277 | 8.24264 | 18983 ft | 190 kts | 166° |
| 2026-05-04 12:20 | 49.95021 | 8.24903 | 18984 ft | 190 kts | 166° |
| 2026-05-04 12:21 | 49.93762 | 8.25543 | 18984 ft | 190 kts | 166° |
| 2026-05-04 12:21 | 49.92508 | 8.26184 | 18984 ft | 190 kts | 166° |
| 2026-05-04 12:21 | 49.91251 | 8.26823 | 18990 ft | 190 kts | 166° |
| 2026-05-04 12:21 | 49.90006 | 8.27457 | 18990 ft | 191 kts | 166° |
| 2026-05-04 12:22 | 49.88743 | 8.28099 | 18987 ft | 190 kts | 166° |
| 2026-05-04 12:22 | 49.87485 | 8.28738 | 18988 ft | 190 kts | 166° |
| 2026-05-04 12:22 | 49.86230 | 8.29375 | 18989 ft | 190 kts | 166° |
| 2026-05-04 12:22 | 49.84977 | 8.30011 | 18988 ft | 190 kts | 166° |
| 2026-05-04 12:23 | 49.83720 | 8.30648 | 18985 ft | 190 kts | 166° |
| 2026-05-04 12:23 | 49.82466 | 8.31285 | 18986 ft | 190 kts | 166° |
| 2026-05-04 12:23 | 49.81212 | 8.31920 | 18986 ft | 190 kts | 166° |
| 2026-05-04 12:23 | 49.79958 | 8.32556 | 18986 ft | 190 kts | 166° |
| 2026-05-04 12:24 | 49.78719 | 8.33182 | 18988 ft | 189 kts | 166° |
| 2026-05-04 12:24 | 49.77466 | 8.33816 | 18987 ft | 189 kts | 166° |
| 2026-05-04 12:24 | 49.76216 | 8.34448 | 18989 ft | 189 kts | 166° |
| 2026-05-04 12:24 | 49.74964 | 8.35081 | 18992 ft | 189 kts | 166° |
| 2026-05-04 12:25 | 49.73718 | 8.35710 | 18992 ft | 189 kts | 166° |
| 2026-05-04 12:25 | 49.72464 | 8.36343 | 18992 ft | 189 kts | 166° |
| 2026-05-04 12:25 | 49.71217 | 8.36972 | 18992 ft | 189 kts | 166° |
| 2026-05-04 12:25 | 49.69964 | 8.37604 | 18992 ft | 189 kts | 166° |
| 2026-05-04 12:26 | 49.68716 | 8.38233 | 18989 ft | 189 kts | 166° |
| 2026-05-04 12:26 | 49.67486 | 8.38853 | 18989 ft | 189 kts | 166° |
| 2026-05-04 12:26 | 49.66236 | 8.39481 | 18988 ft | 188 kts | 166° |
| 2026-05-04 12:26 | 49.65000 | 8.40103 | 18989 ft | 188 kts | 166° |
| 2026-05-04 12:27 | 49.63749 | 8.40733 | 18986 ft | 188 kts | 166° |
| 2026-05-04 12:27 | 49.62504 | 8.41358 | 18986 ft | 188 kts | 166° |
| 2026-05-04 12:27 | 49.61261 | 8.41983 | 18988 ft | 188 kts | 166° |
| 2026-05-04 12:27 | 49.60015 | 8.42609 | 18987 ft | 188 kts | 166° |
| 2026-05-04 12:28 | 49.58771 | 8.43233 | 18991 ft | 188 kts | 166° |
| 2026-05-04 12:28 | 49.57546 | 8.43847 | 18988 ft | 188 kts | 166° |
| 2026-05-04 12:28 | 49.56302 | 8.44469 | 18990 ft | 188 kts | 166° |
| 2026-05-04 12:28 | 49.55050 | 8.45096 | 19000 ft | 191 kts | 166° |
| 2026-05-04 12:29 | 49.53771 | 8.45735 | 19002 ft | 196 kts | 166° |
| 2026-05-04 12:29 | 49.52457 | 8.46394 | 19003 ft | 198 kts | 166° |
| 2026-05-04 12:29 | 49.51145 | 8.47051 | 19001 ft | 198 kts | 166° |
| 2026-05-04 12:29 | 49.49839 | 8.47706 | 19002 ft | 197 kts | 166° |
| 2026-05-04 12:30 | 49.48538 | 8.48355 | 19002 ft | 197 kts | 166° |
| 2026-05-04 12:30 | 49.47235 | 8.49005 | 19002 ft | 196 kts | 166° |
| 2026-05-04 12:30 | 49.45938 | 8.49653 | 19000 ft | 196 kts | 166° |
| 2026-05-04 12:30 | 49.44645 | 8.50298 | 18996 ft | 194 kts | 166° |
| 2026-05-04 12:31 | 49.43364 | 8.50936 | 18993 ft | 193 kts | 166° |
| 2026-05-04 12:31 | 49.42091 | 8.51570 | 18988 ft | 192 kts | 166° |
| 2026-05-04 12:31 | 49.40833 | 8.52197 | 18985 ft | 191 kts | 166° |
| 2026-05-04 12:31 | 49.39566 | 8.52828 | 18984 ft | 191 kts | 166° |
| 2026-05-04 12:32 | 49.38307 | 8.53454 | 18986 ft | 190 kts | 166° |
| 2026-05-04 12:32 | 49.35788 | 8.54705 | 18984 ft | 190 kts | 166° |
| 2026-05-04 12:32 | 49.34543 | 8.55323 | 18984 ft | 190 kts | 166° |
| 2026-05-04 12:33 | 49.33284 | 8.55948 | 18984 ft | 190 kts | 166° |
| 2026-05-04 12:33 | 49.32022 | 8.56573 | 18985 ft | 191 kts | 166° |
| 2026-05-04 12:33 | 49.30758 | 8.57201 | 18988 ft | 191 kts | 166° |
| 2026-05-04 12:33 | 49.29487 | 8.57831 | 18991 ft | 192 kts | 166° |
| 2026-05-04 12:34 | 49.28210 | 8.58462 | 18990 ft | 193 kts | 166° |
| 2026-05-04 12:34 | 49.26929 | 8.59098 | 18994 ft | 193 kts | 166° |
| 2026-05-04 12:34 | 49.25642 | 8.59733 | 18996 ft | 194 kts | 166° |
| 2026-05-04 12:34 | 49.24357 | 8.60370 | 18996 ft | 195 kts | 166° |
| 2026-05-04 12:35 | 49.23080 | 8.61000 | 19003 ft | 195 kts | 166° |
| 2026-05-04 12:35 | 49.21784 | 8.61640 | 19005 ft | 197 kts | 166° |
| 2026-05-04 12:35 | 49.21344 | 8.61857 | 19005 ft | 197 kts | 166° |